createdAt,value
2019-03-09T00:01:11.215Z,9.67
2019-03-09T00:03:38.775Z,9.33
2019-03-09T00:06:06.286Z,9.20
2019-03-09T00:08:34.075Z,8.50
2019-03-09T00:11:01.481Z,8.23
2019-03-09T00:13:28.887Z,8.60
2019-03-09T00:15:56.463Z,7.10
2019-03-09T00:18:23.912Z,7.50
2019-03-09T00:20:51.315Z,7.20
2019-03-09T00:23:23.584Z,7.50
2019-03-09T00:25:57.038Z,7.13
2019-03-09T00:28:26.195Z,8.60
2019-03-09T00:30:55.168Z,9.00
2019-03-09T00:33:22.615Z,8.10
2019-03-09T00:35:50.053Z,8.23
2019-03-09T00:38:17.487Z,9.33
2019-03-09T00:40:44.825Z,9.80
2019-03-09T00:43:12.227Z,9.50
2019-03-09T00:45:39.633Z,10.37
2019-03-09T00:48:07.127Z,12.30
2019-03-09T00:50:34.697Z,11.90
2019-03-09T00:53:02.112Z,11.40
2019-03-09T00:55:29.649Z,12.53
2019-03-09T00:57:57.129Z,12.73
2019-03-09T01:00:24.668Z,13.13
2019-03-09T01:02:52.130Z,14.27
2019-03-09T01:05:19.575Z,14.77
2019-03-09T01:07:46.966Z,14.63
2019-03-09T01:10:15.113Z,16.20
2019-03-09T01:12:43.206Z,15.67
2019-03-09T01:15:10.740Z,17.63
2019-03-09T01:17:38.137Z,17.03
2019-03-09T01:20:07.138Z,16.73
2019-03-09T01:22:34.542Z,16.50
2019-03-09T01:25:02.013Z,18.40
2019-03-09T01:27:29.331Z,17.53
2019-03-09T01:29:56.846Z,18.37
2019-03-09T01:32:25.873Z,18.63
2019-03-09T01:34:53.363Z,19.27
2019-03-09T01:37:20.799Z,17.17
2019-03-09T01:39:48.173Z,18.17
2019-03-09T01:42:15.634Z,18.70
2019-03-09T01:44:43.680Z,17.03
2019-03-09T01:47:11.117Z,18.07
2019-03-09T01:49:38.495Z,17.40
2019-03-09T01:52:06.006Z,16.50
2019-03-09T01:54:33.477Z,18.57
2019-03-09T01:57:00.977Z,16.67
2019-03-09T01:59:28.476Z,15.13
2019-03-09T02:01:55.937Z,15.17
2019-03-09T02:04:23.374Z,14.93
2019-03-09T02:06:51.981Z,13.53
2019-03-09T02:09:19.453Z,13.47
2019-03-09T02:11:46.981Z,12.63
2019-03-09T02:14:14.455Z,11.17
2019-03-09T02:16:41.801Z,10.60
2019-03-09T02:19:09.263Z,9.43
2019-03-09T02:21:38.835Z,8.67
2019-03-09T02:24:06.232Z,8.47
2019-03-09T02:26:33.639Z,7.77
2019-03-09T02:29:01.310Z,7.83
2019-03-09T02:31:28.719Z,6.73
2019-03-09T02:33:56.367Z,6.53
2019-03-09T02:36:26.833Z,7.20
2019-03-09T02:38:55.805Z,6.83
2019-03-09T02:41:23.216Z,5.57
2019-03-09T02:43:50.631Z,5.90
2019-03-09T02:46:18.018Z,6.37
2019-03-09T02:48:45.390Z,6.43
2019-03-09T02:51:12.787Z,5.40
2019-03-09T02:53:40.241Z,5.23
2019-03-09T02:56:07.573Z,5.23
2019-03-09T02:58:34.990Z,5.13
2019-03-09T03:01:03.961Z,5.50
2019-03-09T03:03:31.512Z,5.43
2019-03-09T03:05:58.979Z,5.53
2019-03-09T03:08:26.410Z,5.80
2019-03-09T03:10:53.799Z,5.30
2019-03-09T03:13:21.593Z,5.03
2019-03-09T03:15:49.062Z,4.70
2019-03-09T03:18:16.500Z,5.00
2019-03-09T03:20:43.908Z,5.47
2019-03-09T03:23:11.377Z,5.60
2019-03-09T03:25:38.905Z,5.90
2019-03-09T03:28:07.619Z,6.67
2019-03-09T03:30:34.947Z,5.33
2019-03-09T03:33:02.432Z,5.43
2019-03-09T03:35:29.898Z,4.37
2019-03-09T03:37:57.357Z,4.80
2019-03-09T03:40:24.824Z,4.73
2019-03-09T03:42:52.198Z,4.50
2019-03-09T03:45:19.531Z,4.90
2019-03-09T03:47:47.337Z,4.37
2019-03-09T03:50:14.818Z,4.20
2019-03-09T03:52:42.195Z,4.43
2019-03-09T03:55:09.828Z,5.07
2019-03-09T03:57:37.219Z,4.60
2019-03-09T04:00:06.402Z,4.60
2019-03-09T04:02:33.810Z,4.73
2019-03-09T04:05:01.216Z,4.47
2019-03-09T04:07:28.607Z,4.63
2019-03-09T04:09:57.664Z,6.00
2019-03-09T04:12:26.669Z,7.17
2019-03-09T04:14:54.081Z,7.07
2019-03-09T04:17:21.550Z,6.50
2019-03-09T04:19:48.981Z,5.73
2019-03-09T04:22:16.347Z,5.27
2019-03-09T04:24:43.668Z,5.47
2019-03-09T04:27:10.985Z,6.47
2019-03-09T04:29:38.433Z,6.50
2019-03-09T04:32:05.798Z,6.20
2019-03-09T04:34:33.207Z,8.17
2019-03-09T04:37:00.850Z,7.33
2019-03-09T04:39:28.182Z,7.43
2019-03-09T04:41:55.618Z,7.63
2019-03-09T04:44:23.002Z,7.70
2019-03-09T04:46:50.367Z,6.97
2019-03-09T04:49:17.764Z,7.57
2019-03-09T04:51:45.154Z,6.97
2019-03-09T04:54:12.518Z,6.63
2019-03-09T04:56:39.950Z,6.70
2019-03-09T04:59:08.019Z,6.60
2019-03-09T05:01:35.430Z,5.87
2019-03-09T05:04:22.478Z,6.23
2019-03-09T05:06:49.976Z,6.70
2019-03-09T05:09:25.372Z,7.10
2019-03-09T05:11:52.822Z,7.10
2019-03-09T05:14:20.324Z,6.83
2019-03-09T05:16:47.821Z,6.67
2019-03-09T05:19:15.308Z,5.03
2019-03-09T05:21:42.693Z,4.90
2019-03-09T05:24:10.155Z,5.17
2019-03-09T05:26:37.719Z,4.67
2019-03-09T05:29:05.477Z,4.30
2019-03-09T05:31:32.954Z,4.03
2019-03-09T05:34:00.470Z,4.13
2019-03-09T05:36:27.988Z,4.43
2019-03-09T05:38:55.446Z,4.97
2019-03-09T05:41:22.941Z,5.20
2019-03-09T05:43:50.293Z,4.60
2019-03-09T05:46:17.636Z,4.27
2019-03-09T05:48:44.998Z,4.33
2019-03-09T05:51:12.353Z,4.23
2019-03-09T05:53:39.702Z,4.17
2019-03-09T05:56:07.882Z,4.33
2019-03-09T05:58:35.279Z,4.57
2019-03-09T06:01:02.698Z,4.00
2019-03-09T06:03:30.109Z,4.17
2019-03-09T06:05:57.471Z,4.67
2019-03-09T06:08:24.830Z,4.47
2019-03-09T06:10:52.622Z,4.10
2019-03-09T06:13:19.992Z,4.17
2019-03-09T06:15:47.369Z,3.80
2019-03-09T06:18:14.696Z,3.97
2019-03-09T06:20:42.086Z,3.50
2019-03-09T06:23:09.433Z,4.20
2019-03-09T06:25:38.534Z,4.97
2019-03-09T06:28:05.836Z,5.60
2019-03-09T06:30:33.307Z,5.53
2019-03-09T06:33:11.231Z,6.97
2019-03-09T06:35:38.560Z,6.50
2019-03-09T06:38:24.451Z,5.43
2019-03-09T06:40:51.831Z,5.23
2019-03-09T06:43:19.230Z,5.00
2019-03-09T06:45:46.560Z,6.00
2019-03-09T06:48:13.977Z,4.67
2019-03-09T06:50:41.294Z,4.57
2019-03-09T06:53:08.626Z,4.40
2019-03-09T06:55:36.009Z,4.77
2019-03-09T06:58:03.358Z,4.90
2019-03-09T07:00:31.945Z,4.70
2019-03-09T07:02:59.441Z,4.37
2019-03-09T07:05:26.923Z,3.73
2019-03-09T07:07:54.370Z,3.70
2019-03-09T07:10:23.103Z,4.70
2019-03-09T07:12:50.457Z,3.93
2019-03-09T07:15:24.829Z,4.50
2019-03-09T07:17:53.312Z,3.97
2019-03-09T07:20:21.433Z,5.43
2019-03-09T07:22:48.800Z,5.47
2019-03-09T07:25:16.231Z,5.77
2019-03-09T07:27:43.644Z,6.03
2019-03-09T07:30:15.039Z,4.50
2019-03-09T07:32:42.601Z,6.10
2019-03-09T07:35:10.180Z,8.13
2019-03-09T07:37:37.622Z,7.20
2019-03-09T07:40:08.415Z,8.43
2019-03-09T07:42:35.934Z,9.37
2019-03-09T07:45:05.621Z,5.87
2019-03-09T07:47:33.117Z,5.40
2019-03-09T07:50:00.721Z,4.40
2019-03-09T07:52:32.734Z,4.73
2019-03-09T07:55:00.362Z,4.00
2019-03-09T07:57:27.941Z,3.80
2019-03-09T07:59:55.347Z,4.40
2019-03-09T08:02:22.719Z,4.20
2019-03-09T08:04:50.022Z,4.37
2019-03-09T08:07:17.501Z,3.17
2019-03-09T08:09:44.840Z,3.50
2019-03-09T08:12:12.177Z,3.13
2019-03-09T08:14:39.612Z,3.07
2019-03-09T08:17:07.916Z,2.93
2019-03-09T08:19:38.689Z,2.90
2019-03-09T08:22:06.109Z,2.53
2019-03-09T08:25:07.407Z,3.10
2019-03-09T08:27:47.835Z,2.77
2019-03-09T08:30:31.981Z,3.33
2019-03-09T08:33:03.230Z,4.23
2019-03-09T08:35:33.388Z,2.27
2019-03-09T08:38:04.212Z,2.70
2019-03-09T08:40:34.511Z,1.90
2019-03-09T08:43:03.435Z,1.57
2019-03-09T08:45:30.760Z,2.87
2019-03-09T08:47:58.281Z,1.10
2019-03-09T08:50:25.777Z,1.30
2019-03-09T08:52:58.113Z,1.17
2019-03-09T08:55:25.575Z,1.83
2019-03-09T08:57:52.997Z,1.40
2019-03-09T09:00:29.827Z,1.50
2019-03-09T09:02:56.512Z,1.10
2019-03-09T09:05:24.100Z,1.50
2019-03-09T09:07:51.504Z,1.50
2019-03-09T09:10:18.849Z,1.60
2019-03-09T09:12:48.621Z,1.63
2019-03-09T09:15:16.852Z,1.20
2019-03-09T09:17:44.295Z,1.90
2019-03-09T09:20:25.463Z,1.60
2019-03-09T09:22:52.818Z,1.50
2019-03-09T09:25:20.192Z,1.73
2019-03-09T09:27:47.617Z,1.40
2019-03-09T09:30:27.954Z,1.77
2019-03-09T09:32:56.623Z,1.77
2019-03-09T09:35:23.913Z,2.23
2019-03-09T09:37:51.535Z,1.73
2019-03-09T09:40:25.531Z,1.40
2019-03-09T09:42:52.894Z,2.00
2019-03-09T09:45:20.172Z,2.00
2019-03-09T09:47:47.580Z,1.90
2019-03-09T09:50:15.660Z,2.00
2019-03-09T09:52:43.002Z,1.63
2019-03-09T09:55:11.424Z,1.60
2019-03-09T09:57:38.780Z,2.00
2019-03-09T10:00:10.686Z,2.20
2019-03-09T10:02:38.091Z,2.20
2019-03-09T10:05:07.173Z,1.90
2019-03-09T10:07:37.972Z,1.73
2019-03-09T10:10:08.183Z,1.83
2019-03-09T10:12:35.536Z,1.53
2019-03-09T10:15:02.981Z,1.77
2019-03-09T10:17:30.724Z,1.60
2019-03-09T10:19:58.192Z,1.67
2019-03-09T10:22:31.586Z,2.13
2019-03-09T10:24:58.885Z,1.90
2019-03-09T10:27:26.308Z,1.50
2019-03-09T10:29:53.603Z,1.70
2019-03-09T10:32:22.627Z,1.60
2019-03-09T10:34:50.984Z,1.70
2019-03-09T10:37:18.334Z,1.57
2019-03-09T10:39:46.756Z,2.07
2019-03-09T10:42:16.780Z,2.33
2019-03-09T10:44:44.228Z,1.87
2019-03-09T10:47:11.722Z,2.67
2019-03-09T10:49:39.491Z,2.77
2019-03-09T10:52:07.084Z,2.23
2019-03-09T10:54:36.254Z,2.30
2019-03-09T10:57:04.598Z,2.13
2019-03-09T10:59:32.028Z,1.90
2019-03-09T11:02:01.024Z,2.27
2019-03-09T11:04:28.488Z,1.80
2019-03-09T11:06:55.857Z,1.13
2019-03-09T11:09:23.205Z,1.53
2019-03-09T11:11:52.066Z,1.57
2019-03-09T11:14:19.489Z,2.33
2019-03-09T11:16:46.903Z,1.77
2019-03-09T11:19:15.968Z,1.40
2019-03-09T11:21:43.527Z,1.87
2019-03-09T11:24:11.090Z,1.40
2019-03-09T11:26:38.562Z,1.40
2019-03-09T11:29:06.092Z,1.20
2019-03-09T11:31:33.432Z,1.80
2019-03-09T11:34:02.788Z,1.40
2019-03-09T11:36:31.486Z,1.83
2019-03-09T11:38:59.498Z,1.67
2019-03-09T11:41:28.480Z,1.30
2019-03-09T11:44:03.587Z,1.63
2019-03-09T11:46:31.020Z,1.17
2019-03-09T11:49:01.201Z,1.70
2019-03-09T11:51:31.622Z,1.20
2019-03-09T11:54:02.018Z,1.00
2019-03-09T11:56:31.797Z,1.47
2019-03-09T11:59:00.725Z,1.80
2019-03-09T12:01:28.247Z,1.97
2019-03-09T12:03:57.341Z,1.90
2019-03-09T12:06:26.414Z,3.37
2019-03-09T12:08:54.145Z,3.20
2019-03-09T12:11:21.871Z,3.30
2019-03-09T12:13:49.352Z,4.23
2019-03-09T12:16:17.604Z,4.70
2019-03-09T12:18:45.540Z,4.57
2019-03-09T12:21:13.034Z,4.93
2019-03-09T12:23:44.812Z,4.30
2019-03-09T12:26:12.221Z,4.07
2019-03-09T12:28:39.568Z,4.50
2019-03-09T12:31:06.990Z,4.90
2019-03-09T12:33:34.513Z,4.40
2019-03-09T12:36:02.151Z,3.93
2019-03-09T12:38:29.511Z,3.73
2019-03-09T12:40:56.920Z,4.23
2019-03-09T12:43:24.404Z,3.60
2019-03-09T12:45:51.724Z,4.50
2019-03-09T12:48:19.129Z,2.57
2019-03-09T12:50:48.143Z,2.80
2019-03-09T12:53:15.537Z,3.50
2019-03-09T12:55:42.993Z,3.40
2019-03-09T12:58:10.412Z,3.97
2019-03-09T13:00:37.826Z,4.13
2019-03-09T13:03:05.203Z,4.07
2019-03-09T13:05:33.182Z,3.73
2019-03-09T13:08:02.294Z,4.77
2019-03-09T13:10:29.581Z,4.10
2019-03-09T13:12:57.028Z,4.67
2019-03-09T13:15:24.703Z,3.87
2019-03-09T13:17:53.489Z,3.73
2019-03-09T13:20:20.821Z,4.57
2019-03-09T13:22:48.150Z,4.50
2019-03-09T13:25:15.601Z,4.67
2019-03-09T13:27:43.640Z,5.40
2019-03-09T13:30:15.622Z,4.03
2019-03-09T13:32:44.128Z,4.83
2019-03-09T13:35:11.462Z,5.43
2019-03-09T13:37:38.824Z,4.77
2019-03-09T13:40:07.412Z,4.40
2019-03-09T13:42:36.501Z,6.07
2019-03-09T13:45:04.686Z,6.07
2019-03-09T13:47:32.003Z,6.00
2019-03-09T13:49:59.471Z,5.93
2019-03-09T13:52:26.883Z,6.83
2019-03-09T13:54:54.207Z,7.27
2019-03-09T13:57:21.686Z,7.20
2019-03-09T13:59:49.121Z,6.97
2019-03-09T14:02:16.721Z,6.17
2019-03-09T14:04:44.079Z,5.87
2019-03-09T14:07:12.061Z,6.27
2019-03-09T14:09:39.439Z,5.80
2019-03-09T14:12:06.948Z,6.43
2019-03-09T14:14:34.407Z,6.77
2019-03-09T14:17:01.793Z,5.40
2019-03-09T14:19:30.456Z,5.30
2019-03-09T14:21:57.856Z,7.07
2019-03-09T14:24:27.632Z,6.10
2019-03-09T14:26:56.585Z,7.13
2019-03-09T14:29:24.004Z,5.90
2019-03-09T14:31:51.492Z,5.53
2019-03-09T14:34:20.566Z,6.20
2019-03-09T14:36:47.946Z,4.77
2019-03-09T14:39:16.920Z,5.00
2019-03-09T14:41:44.226Z,4.60
2019-03-09T14:44:11.574Z,4.93
2019-03-09T14:46:38.935Z,4.63
2019-03-09T14:49:06.448Z,3.67
2019-03-09T14:51:33.791Z,3.93
2019-03-09T14:54:01.989Z,4.27
2019-03-09T14:56:29.357Z,4.73
2019-03-09T14:58:56.768Z,4.33
2019-03-09T15:01:24.173Z,3.87
2019-03-09T15:03:51.570Z,5.03
2019-03-09T15:06:18.998Z,5.43
2019-03-09T15:08:46.372Z,5.07
2019-03-09T15:11:13.843Z,5.80
2019-03-09T15:13:41.280Z,5.00
2019-03-09T15:16:08.600Z,5.27
2019-03-09T15:18:36.049Z,4.90
2019-03-09T15:21:03.387Z,6.23
2019-03-09T15:23:30.666Z,5.03
2019-03-09T15:25:58.351Z,6.60
2019-03-09T15:28:25.672Z,6.70
2019-03-09T15:30:53.004Z,6.40
2019-03-09T15:33:21.798Z,4.83
2019-03-09T15:35:49.287Z,5.77
2019-03-09T15:38:16.747Z,6.40
2019-03-09T15:40:44.124Z,7.30
2019-03-09T15:43:11.441Z,6.90
2019-03-09T15:45:38.878Z,6.27
2019-03-09T15:48:06.237Z,7.17
2019-03-09T15:50:33.578Z,7.40
2019-03-09T15:53:00.917Z,7.80
2019-03-09T15:55:28.251Z,7.90
2019-03-09T15:57:55.622Z,8.60
2019-03-09T16:00:25.826Z,9.00
2019-03-09T16:02:53.138Z,8.43
2019-03-09T16:05:20.486Z,10.53
2019-03-09T16:07:47.894Z,10.60
2019-03-09T16:10:15.950Z,10.00
2019-03-09T16:12:43.422Z,10.07
2019-03-09T16:15:11.818Z,10.20
2019-03-09T16:17:39.376Z,10.87
2019-03-09T16:20:08.361Z,10.70
2019-03-09T16:22:37.221Z,10.83
2019-03-09T16:25:05.024Z,9.73
2019-03-09T16:27:32.444Z,9.67
2019-03-09T16:29:59.756Z,10.20
2019-03-09T16:32:27.241Z,9.23
2019-03-09T16:34:54.626Z,10.30
2019-03-09T16:37:21.973Z,10.53
2019-03-09T16:39:49.438Z,10.10
2019-03-09T16:42:16.837Z,9.67
2019-03-09T16:44:44.235Z,9.83
2019-03-09T16:47:11.621Z,10.93
2019-03-09T16:49:39.235Z,11.47
2019-03-09T16:52:06.636Z,13.13
2019-03-09T16:54:33.958Z,12.53
2019-03-09T16:57:01.304Z,11.23
2019-03-09T16:59:28.646Z,13.27
2019-03-09T17:01:56.058Z,13.13
2019-03-09T17:04:23.466Z,12.33
2019-03-09T17:06:50.854Z,11.10
2019-03-09T17:09:18.248Z,11.50
2019-03-09T17:11:45.566Z,12.13
2019-03-09T17:14:12.992Z,13.53
2019-03-09T17:16:40.418Z,13.23
2019-03-09T17:19:07.751Z,13.37
2019-03-09T17:21:35.123Z,11.27
2019-03-09T17:24:02.458Z,11.57
2019-03-09T17:26:29.789Z,12.50
2019-03-09T17:28:57.197Z,9.83
2019-03-09T17:31:24.639Z,9.47
2019-03-09T17:33:52.059Z,8.77
2019-03-09T17:36:19.465Z,8.70
2019-03-09T17:38:46.883Z,10.10
2019-03-09T17:41:14.257Z,10.30
2019-03-09T17:43:41.610Z,9.33
2019-03-09T17:46:09.065Z,11.03
2019-03-09T17:48:36.465Z,8.97
2019-03-09T17:51:04.099Z,10.33
2019-03-09T17:53:31.405Z,9.63
2019-03-09T17:55:59.211Z,9.17
2019-03-09T17:58:26.660Z,8.27
2019-03-09T18:00:53.970Z,4.83
2019-03-09T18:03:21.320Z,5.07
2019-03-09T18:05:48.727Z,5.43
2019-03-09T18:08:16.073Z,2.73
2019-03-09T18:10:53.807Z,2.73
2019-03-09T18:13:21.189Z,2.53
2019-03-09T18:15:48.519Z,2.50
2019-03-09T18:18:17.787Z,2.80
2019-03-09T18:20:45.015Z,2.57
2019-03-09T18:23:13.661Z,3.30
2019-03-09T18:25:41.109Z,4.10
2019-03-09T18:28:08.419Z,2.47
2019-03-09T18:30:35.742Z,2.57
2019-03-09T18:33:03.109Z,2.93
2019-03-09T18:35:30.484Z,3.90
2019-03-09T18:37:59.467Z,2.57
2019-03-09T18:40:26.941Z,3.60
2019-03-09T18:42:54.331Z,2.90
2019-03-09T18:45:22.151Z,1.93
2019-03-09T18:47:49.512Z,2.90
2019-03-09T18:50:16.834Z,2.90
2019-03-09T18:52:44.196Z,3.00
2019-03-09T18:55:11.569Z,3.17
2019-03-09T18:57:38.836Z,2.77
2019-03-09T19:00:07.847Z,2.00
2019-03-09T19:02:35.154Z,2.10
2019-03-09T19:05:02.569Z,2.77
2019-03-09T19:07:29.964Z,2.77
2019-03-09T19:09:57.341Z,2.87
2019-03-09T19:12:24.663Z,3.50
2019-03-09T19:14:52.455Z,3.17
2019-03-09T19:17:19.812Z,3.63
2019-03-09T19:19:47.177Z,3.00
2019-03-09T19:22:14.501Z,3.17
2019-03-09T19:24:41.965Z,2.90
2019-03-09T19:27:09.311Z,2.90
2019-03-09T19:29:38.277Z,4.33
2019-03-09T19:32:05.662Z,5.80
2019-03-09T19:34:32.985Z,5.10
2019-03-09T19:37:00.505Z,4.47
2019-03-09T19:39:27.843Z,3.73
2019-03-09T19:41:55.193Z,3.90
2019-03-09T19:44:22.702Z,3.17
2019-03-09T19:46:50.073Z,3.40
2019-03-09T19:49:17.395Z,3.20
2019-03-09T19:51:44.736Z,2.80
2019-03-09T19:54:12.191Z,3.20
2019-03-09T19:56:39.612Z,3.70
2019-03-09T19:59:06.955Z,3.13
2019-03-09T20:01:34.347Z,2.73
2019-03-09T20:04:01.692Z,2.60
2019-03-09T20:06:29.025Z,3.10
2019-03-09T20:08:58.171Z,3.43
2019-03-09T20:11:27.124Z,3.40
2019-03-09T20:13:54.751Z,3.80
2019-03-09T20:16:22.169Z,2.93
2019-03-09T20:18:49.499Z,2.53
2019-03-09T20:21:16.841Z,3.40
2019-03-09T20:23:44.242Z,2.90
2019-03-09T20:26:11.597Z,3.37
2019-03-09T20:28:40.561Z,2.73
2019-03-09T20:31:07.873Z,3.00
2019-03-09T20:33:35.277Z,3.20
2019-03-09T20:36:02.579Z,3.87
2019-03-09T20:38:29.920Z,4.70
2019-03-09T20:40:57.892Z,4.50
2019-03-09T20:43:25.344Z,3.53
2019-03-09T20:45:52.741Z,4.00
2019-03-09T20:48:20.101Z,5.10
2019-03-09T20:50:47.470Z,5.23
2019-03-09T20:53:14.962Z,4.90
2019-03-09T20:55:42.323Z,5.03
2019-03-09T20:58:09.681Z,4.67
2019-03-09T21:00:38.266Z,4.07
2019-03-09T21:03:05.794Z,4.47
2019-03-09T21:05:33.182Z,4.87
2019-03-09T21:08:00.741Z,4.20
2019-03-09T21:10:28.096Z,4.13
2019-03-09T21:12:56.098Z,3.13
2019-03-09T21:15:23.449Z,3.03
2019-03-09T21:17:50.830Z,3.20
2019-03-09T21:20:18.198Z,3.67
2019-03-09T21:22:45.654Z,2.40
2019-03-09T21:25:13.036Z,2.57
2019-03-09T21:27:40.460Z,2.53
2019-03-09T21:30:08.072Z,2.17
2019-03-09T21:32:35.400Z,2.53
2019-03-09T21:35:03.317Z,2.20
2019-03-09T21:37:30.934Z,3.57
2019-03-09T21:39:58.306Z,1.83
2019-03-09T21:42:25.679Z,1.93
2019-03-09T21:44:53.156Z,1.60
2019-03-09T21:47:20.611Z,1.60
2019-03-09T21:49:48.024Z,1.80
2019-03-09T21:52:15.948Z,2.20
2019-03-09T21:54:43.807Z,2.70
2019-03-09T21:57:11.211Z,2.30
2019-03-09T21:59:38.568Z,3.30
2019-03-09T22:02:06.273Z,2.13
2019-03-09T22:04:33.666Z,1.80
2019-03-09T22:07:01.058Z,2.13
2019-03-09T22:09:28.479Z,2.43
2019-03-09T22:11:55.923Z,2.47
2019-03-09T22:14:23.354Z,2.43
2019-03-09T22:16:56.441Z,5.60
2019-03-09T22:19:19.860Z,7.47
2019-03-09T22:21:47.230Z,10.03
2019-03-09T22:24:14.714Z,9.83
2019-03-09T22:26:42.260Z,9.13
2019-03-09T22:29:09.617Z,7.73
2019-03-09T22:31:36.920Z,6.53
2019-03-09T22:34:04.448Z,7.47
2019-03-09T22:36:31.764Z,7.97
2019-03-09T22:38:59.157Z,9.13
2019-03-09T22:41:26.616Z,10.53
2019-03-09T22:43:54.034Z,9.70
2019-03-09T22:46:21.386Z,7.30
2019-03-09T22:48:48.723Z,5.50
2019-03-09T22:51:16.190Z,3.87
2019-03-09T22:53:43.522Z,3.20
2019-03-09T22:56:10.926Z,3.90
2019-03-09T22:58:38.503Z,3.13
2019-03-09T23:01:05.917Z,3.40
2019-03-09T23:03:33.258Z,2.90
2019-03-09T23:06:00.782Z,3.03
2019-03-09T23:08:28.146Z,3.00
2019-03-09T23:10:55.468Z,2.97
2019-03-09T23:13:22.845Z,2.90
2019-03-09T23:15:50.192Z,2.60
2019-03-09T23:18:17.578Z,2.00
2019-03-09T23:20:44.918Z,2.33
2019-03-09T23:23:12.261Z,2.30
2019-03-09T23:25:39.593Z,2.77
2019-03-09T23:28:06.913Z,2.43
2019-03-09T23:30:34.309Z,2.67
2019-03-09T23:33:01.647Z,2.73
2019-03-09T23:35:28.959Z,3.63
2019-03-09T23:37:56.312Z,3.40
2019-03-09T23:40:23.751Z,2.70
2019-03-09T23:42:51.183Z,2.60
2019-03-09T23:45:19.177Z,2.50
2019-03-09T23:47:46.575Z,1.70
2019-03-09T23:50:14.784Z,1.40
2019-03-09T23:52:42.130Z,1.70
2019-03-09T23:55:09.531Z,1.70
2019-03-09T23:57:36.857Z,1.00
